createdAt,value
2022-11-04T00:00:10.054Z,11.32
2022-11-04T00:01:11.976Z,12.50
2022-11-04T00:02:14.893Z,12.40
2022-11-04T00:03:16.890Z,9.35
2022-11-04T00:04:21.410Z,11.20
2022-11-04T00:05:23.274Z,13.38
2022-11-04T00:06:26.730Z,8.73
2022-11-04T00:07:47.262Z,11.68
2022-11-04T00:08:50.976Z,10.85
2022-11-04T00:09:53.853Z,8.32
2022-11-04T00:11:29.590Z,17.17
2022-11-04T00:12:31.576Z,10.73
2022-11-04T00:13:34.960Z,13.38
2022-11-04T00:14:38.161Z,14.00
2022-11-04T00:15:58.967Z,10.75
2022-11-04T00:17:20.045Z,16.00
2022-11-04T00:18:22.256Z,11.20
2022-11-04T00:19:25.626Z,9.75
2022-11-04T00:20:46.455Z,8.77
2022-11-04T00:22:07.086Z,9.32
2022-11-04T00:23:27.573Z,8.73
2022-11-04T00:24:44.816Z,12.23
2022-11-04T00:26:05.178Z,14.02
2022-11-04T00:27:27.036Z,10.43
2022-11-04T00:28:45.097Z,10.93
2022-11-04T00:29:48.478Z,12.40
2022-11-04T00:30:55.254Z,12.43
2022-11-04T00:32:18.099Z,10.70
2022-11-04T00:33:25.833Z,12.07
2022-11-04T00:34:27.824Z,10.55
2022-11-04T00:35:30.827Z,10.52
2022-11-04T00:36:33.011Z,13.40
2022-11-04T00:37:38.048Z,11.18
2022-11-04T00:38:40.040Z,11.95
2022-11-04T00:39:43.026Z,13.35
2022-11-04T00:40:45.137Z,11.68
2022-11-04T00:41:48.170Z,10.88
2022-11-04T00:42:50.214Z,11.75
2022-11-04T00:43:53.511Z,10.57
2022-11-04T00:44:56.963Z,8.40
2022-11-04T00:45:59.977Z,11.23
2022-11-04T00:47:02.001Z,13.23
2022-11-04T00:48:05.736Z,10.38
2022-11-04T00:49:07.943Z,11.23
2022-11-04T00:50:11.207Z,9.27
2022-11-04T00:52:16.137Z,10.80
2022-11-04T00:53:19.142Z,8.63
2022-11-04T00:54:21.126Z,9.85
2022-11-04T00:55:24.094Z,11.20
2022-11-04T00:56:26.300Z,9.15
2022-11-04T00:57:29.355Z,13.38
2022-11-04T00:58:31.401Z,12.30
2022-11-04T00:59:34.393Z,11.52
2022-11-04T01:00:38.200Z,12.43
2022-11-04T01:01:41.565Z,12.70
2022-11-04T01:02:43.747Z,14.73
2022-11-04T01:03:47.931Z,13.23
2022-11-04T01:04:49.993Z,12.18
2022-11-04T01:05:53.020Z,10.07
2022-11-04T01:06:55.526Z,15.00
2022-11-04T01:07:58.674Z,14.20
2022-11-04T01:09:03.323Z,13.68
2022-11-04T01:10:07.256Z,10.27
2022-11-04T01:11:10.605Z,10.65
2022-11-04T01:12:13.767Z,9.88
2022-11-04T01:13:15.801Z,9.45
2022-11-04T01:14:19.535Z,12.45
2022-11-04T01:15:21.769Z,10.02
2022-11-04T01:17:30.376Z,12.48
2022-11-04T01:18:33.703Z,10.70
2022-11-04T01:19:35.926Z,9.30
2022-11-04T01:20:38.938Z,10.65
2022-11-04T01:21:41.066Z,8.75
2022-11-04T01:22:44.139Z,10.43
2022-11-04T01:23:46.540Z,11.73
2022-11-04T01:24:49.560Z,14.25
2022-11-04T01:25:51.598Z,8.05
2022-11-04T01:26:54.645Z,9.70
2022-11-04T01:27:56.671Z,13.63
2022-11-04T01:29:00.190Z,11.07
2022-11-04T01:30:03.265Z,9.40
2022-11-04T01:31:06.352Z,9.40
2022-11-04T01:32:10.770Z,10.35
2022-11-04T01:33:13.034Z,11.10
2022-11-04T01:34:16.040Z,9.68
2022-11-04T01:35:18.095Z,11.50
2022-11-04T01:36:21.695Z,10.63
2022-11-04T01:37:23.864Z,10.57
2022-11-04T01:38:26.908Z,9.05
2022-11-04T01:39:28.933Z,12.27
2022-11-04T01:40:36.742Z,11.50
2022-11-04T01:41:39.051Z,7.68
2022-11-04T01:42:42.162Z,10.80
2022-11-04T01:43:48.524Z,13.50
2022-11-04T01:44:54.737Z,11.13
2022-11-04T01:45:59.838Z,12.00
2022-11-04T01:47:02.939Z,10.18
2022-11-04T01:48:13.707Z,11.40
2022-11-04T01:50:29.888Z,8.40
2022-11-04T01:51:36.288Z,10.50
2022-11-04T01:52:43.710Z,13.15
2022-11-04T01:53:47.496Z,10.23
2022-11-04T01:54:54.236Z,9.70
2022-11-04T01:55:59.881Z,12.07
2022-11-04T01:57:04.083Z,9.57
2022-11-04T01:58:10.296Z,11.13
2022-11-04T01:59:16.870Z,10.80
2022-11-04T02:00:20.389Z,9.43
2022-11-04T02:01:22.576Z,9.45
2022-11-04T02:02:25.872Z,11.48
2022-11-04T02:03:32.916Z,12.20
2022-11-04T02:04:38.919Z,10.82
2022-11-04T02:05:43.327Z,13.23
2022-11-04T02:06:47.291Z,10.77
2022-11-04T02:07:52.930Z,11.57
2022-11-04T02:08:54.976Z,10.95
2022-11-04T02:09:58.124Z,11.95
2022-11-04T02:11:02.401Z,11.13
2022-11-04T02:12:23.689Z,9.07
2022-11-04T02:13:26.537Z,12.18
2022-11-04T02:14:29.969Z,10.05
2022-11-04T02:15:41.511Z,14.82
2022-11-04T02:16:45.751Z,10.02
2022-11-04T02:18:08.200Z,10.35
2022-11-04T02:19:31.637Z,10.65
2022-11-04T02:21:02.898Z,13.85
2022-11-04T02:22:40.041Z,10.18
2022-11-04T02:24:03.480Z,10.93
2022-11-04T02:25:32.699Z,12.05
2022-11-04T02:27:11.887Z,14.98
2022-11-04T02:28:33.472Z,11.13
2022-11-04T02:29:51.228Z,11.90
2022-11-04T02:31:02.444Z,11.50
2022-11-04T02:32:15.067Z,11.38
2022-11-04T02:33:25.669Z,11.52
2022-11-04T02:34:38.421Z,12.43
2022-11-04T02:35:49.876Z,13.07
2022-11-04T02:37:01.215Z,9.43
2022-11-04T02:38:14.229Z,10.98
2022-11-04T02:39:29.105Z,10.05
2022-11-04T02:40:40.507Z,16.05
2022-11-04T02:41:53.703Z,9.40
2022-11-04T02:43:02.375Z,11.10
2022-11-04T02:44:15.144Z,11.10
2022-11-04T02:45:25.955Z,11.40
2022-11-04T02:47:39.401Z,6.93
2022-11-04T02:48:46.671Z,9.13
2022-11-04T02:49:56.372Z,11.38
2022-11-04T02:51:05.150Z,9.95
2022-11-04T02:52:10.789Z,9.50
2022-11-04T02:53:17.014Z,7.22
2022-11-04T02:54:24.299Z,9.93
2022-11-04T02:55:30.964Z,8.20
2022-11-04T02:56:37.420Z,11.38
2022-11-04T02:57:42.351Z,10.32
2022-11-04T02:58:51.350Z,14.27
2022-11-04T02:59:57.499Z,8.52
2022-11-04T03:01:04.543Z,11.18
2022-11-04T03:02:10.336Z,10.05
2022-11-04T03:03:17.153Z,7.38
2022-11-04T03:04:25.011Z,8.52
2022-11-04T03:05:32.239Z,8.85
2022-11-04T03:06:36.480Z,9.95
2022-11-04T03:07:42.971Z,7.22
2022-11-04T03:08:49.617Z,8.10
2022-11-04T03:09:55.777Z,9.00
2022-11-04T03:11:04.443Z,10.10
2022-11-04T03:12:14.846Z,9.30
2022-11-04T03:13:22.062Z,9.57
2022-11-04T03:14:31.816Z,10.27
2022-11-04T03:15:36.918Z,9.90
2022-11-04T03:16:46.322Z,10.80
2022-11-04T03:17:55.456Z,10.65
2022-11-04T03:19:03.471Z,9.30
2022-11-04T03:20:10.085Z,9.38
2022-11-04T03:21:15.314Z,8.38
2022-11-04T03:22:20.749Z,9.43
2022-11-04T03:23:23.945Z,10.18
2022-11-04T03:24:26.540Z,7.93
2022-11-04T03:25:37.398Z,8.65
2022-11-04T03:26:44.866Z,9.70
2022-11-04T03:27:57.144Z,12.45
2022-11-04T03:29:13.390Z,11.40
2022-11-04T03:31:24.901Z,8.95
2022-11-04T03:32:38.630Z,8.90
2022-11-04T03:33:46.336Z,9.23
2022-11-04T03:34:48.830Z,8.30
2022-11-04T03:35:51.920Z,7.65
2022-11-04T03:36:53.997Z,9.55
2022-11-04T03:37:58.413Z,16.25
2022-11-04T03:39:00.414Z,8.18
2022-11-04T03:40:04.193Z,8.85
2022-11-04T03:41:12.579Z,10.88
2022-11-04T03:42:23.289Z,10.20
2022-11-04T03:44:31.212Z,9.43
2022-11-04T03:45:33.362Z,13.93
2022-11-04T03:46:36.884Z,8.43
2022-11-04T03:47:41.031Z,11.30
2022-11-04T03:48:46.566Z,12.45
2022-11-04T03:49:50.092Z,9.07
2022-11-04T03:50:53.118Z,12.25
2022-11-04T03:51:55.132Z,13.27
2022-11-04T03:52:59.905Z,8.95
2022-11-04T03:54:02.034Z,13.48
2022-11-04T03:55:07.523Z,11.32
2022-11-04T03:56:34.292Z,10.20
2022-11-04T03:57:47.222Z,8.88
2022-11-04T03:59:06.369Z,10.27
2022-11-04T04:00:12.987Z,10.80
2022-11-04T04:01:28.355Z,9.02
2022-11-04T04:02:49.546Z,9.45
2022-11-04T04:03:58.916Z,10.40
2022-11-04T04:05:06.035Z,9.57
2022-11-04T04:06:16.399Z,8.93
2022-11-04T04:07:22.914Z,11.65
2022-11-04T04:08:35.485Z,8.88
2022-11-04T04:09:42.207Z,9.45
2022-11-04T04:10:53.928Z,9.18
2022-11-04T04:12:03.005Z,10.52
2022-11-04T04:13:15.149Z,9.38
2022-11-04T04:14:38.119Z,9.80
2022-11-04T04:15:45.635Z,11.10
2022-11-04T04:16:49.734Z,10.68
2022-11-04T04:17:59.661Z,10.40
2022-11-04T04:19:06.957Z,9.85
2022-11-04T04:20:15.134Z,9.23
2022-11-04T04:21:22.511Z,8.80
2022-11-04T04:22:29.350Z,8.65
2022-11-04T04:23:52.846Z,11.13
2022-11-04T04:25:16.943Z,10.25
2022-11-04T04:26:40.629Z,9.40
2022-11-04T04:27:45.902Z,5.88
2022-11-04T04:28:50.527Z,8.43
2022-11-04T04:29:54.811Z,7.90
2022-11-04T04:31:00.247Z,6.93
2022-11-04T04:32:05.306Z,7.05
2022-11-04T04:33:11.741Z,6.63
2022-11-04T04:34:14.831Z,6.75
2022-11-04T04:35:36.220Z,6.05
2022-11-04T04:36:45.279Z,6.85
2022-11-04T04:37:48.783Z,3.58
2022-11-04T04:39:09.166Z,5.38
2022-11-04T04:40:34.618Z,5.88
2022-11-04T04:41:55.243Z,4.47
2022-11-04T04:43:15.644Z,4.47
2022-11-04T04:44:41.995Z,3.92
2022-11-04T04:45:52.051Z,5.20
2022-11-04T04:46:56.771Z,6.20
2022-11-04T04:48:00.199Z,4.32
2022-11-04T04:49:07.855Z,2.75
2022-11-04T04:50:12.592Z,3.15
2022-11-04T04:51:14.824Z,3.47
2022-11-04T04:52:18.009Z,3.50
2022-11-04T04:53:21.217Z,2.40
2022-11-04T04:54:23.274Z,2.13
2022-11-04T04:55:26.252Z,4.18
2022-11-04T04:56:28.367Z,2.47
2022-11-04T04:57:31.423Z,4.05
2022-11-04T04:58:33.456Z,2.67
2022-11-04T04:59:36.480Z,3.00
2022-11-04T05:00:38.497Z,3.00
2022-11-04T05:01:41.605Z,3.75
2022-11-04T05:02:44.091Z,2.97
2022-11-04T05:03:47.194Z,2.50
2022-11-04T05:04:50.557Z,3.17
2022-11-04T05:05:56.285Z,4.40
2022-11-04T05:07:00.754Z,3.67
2022-11-04T05:08:07.724Z,3.35
2022-11-04T05:09:10.314Z,3.97
2022-11-04T05:10:16.053Z,2.03
2022-11-04T05:11:20.565Z,3.35
2022-11-04T05:12:47.361Z,3.50
2022-11-04T05:13:49.439Z,2.25
2022-11-04T05:14:52.657Z,4.22
2022-11-04T05:15:54.668Z,6.32
2022-11-04T05:16:58.382Z,3.35
2022-11-04T05:18:03.342Z,2.85
2022-11-04T05:19:05.355Z,2.65
2022-11-04T05:20:11.905Z,3.05
2022-11-04T05:21:15.920Z,2.63
2022-11-04T05:22:18.979Z,2.85
2022-11-04T05:23:21.334Z,3.97
2022-11-04T05:24:24.429Z,3.83
2022-11-04T05:25:26.450Z,1.90
2022-11-04T05:26:29.479Z,2.17
2022-11-04T05:27:31.581Z,2.97
2022-11-04T05:28:34.645Z,1.75
2022-11-04T05:29:36.729Z,4.40
2022-11-04T05:30:40.012Z,2.88
2022-11-04T05:31:42.026Z,2.60
2022-11-04T05:32:45.026Z,11.57
2022-11-04T05:33:47.010Z,2.17
2022-11-04T05:34:50.098Z,2.95
2022-11-04T05:35:54.543Z,2.78
2022-11-04T05:36:56.529Z,1.80
2022-11-04T05:37:59.533Z,3.10
2022-11-04T05:39:01.707Z,2.97
2022-11-04T05:40:05.347Z,2.45
2022-11-04T05:41:09.355Z,2.40
2022-11-04T05:42:12.371Z,2.33
2022-11-04T05:43:14.392Z,2.53
2022-11-04T05:44:17.481Z,1.90
2022-11-04T05:45:19.755Z,2.50
2022-11-04T05:46:22.955Z,2.33
2022-11-04T05:47:25.051Z,3.15
2022-11-04T05:48:28.553Z,2.83
2022-11-04T05:49:30.677Z,2.50
2022-11-04T05:50:34.825Z,3.88
2022-11-04T05:51:38.227Z,2.42
2022-11-04T05:52:41.320Z,3.80
2022-11-04T05:53:43.816Z,4.38
2022-11-04T05:54:47.578Z,3.22
2022-11-04T05:55:49.632Z,8.18
2022-11-04T05:56:52.720Z,4.80
2022-11-04T05:57:54.957Z,3.03
2022-11-04T05:58:58.025Z,4.18
2022-11-04T06:00:00.082Z,2.67
2022-11-04T06:01:14.039Z,5.25
2022-11-04T06:02:16.236Z,2.80
2022-11-04T06:03:19.371Z,2.88
2022-11-04T06:04:21.540Z,2.70
2022-11-04T06:05:24.753Z,3.28
2022-11-04T06:06:29.236Z,2.60
2022-11-04T06:07:33.639Z,2.83
2022-11-04T06:08:35.777Z,6.10
2022-11-04T06:09:41.554Z,2.83
2022-11-04T06:10:43.870Z,3.30
2022-11-04T06:11:47.016Z,4.38
2022-11-04T06:12:49.083Z,3.38
2022-11-04T06:13:52.524Z,3.65
2022-11-04T06:14:54.588Z,4.35
2022-11-04T06:15:57.749Z,3.00
2022-11-04T06:17:01.193Z,3.22
2022-11-04T06:18:03.374Z,3.13
2022-11-04T06:19:09.681Z,3.63
2022-11-04T06:20:14.134Z,3.15
2022-11-04T06:21:26.259Z,3.90
2022-11-04T06:22:28.344Z,4.10
2022-11-04T06:23:32.893Z,3.30
2022-11-04T06:24:35.960Z,4.35
2022-11-04T06:25:38.027Z,8.25
2022-11-04T06:26:41.107Z,5.00
2022-11-04T06:27:44.135Z,5.55
2022-11-04T06:28:46.212Z,3.78
2022-11-04T06:29:49.314Z,3.78
2022-11-04T06:30:51.350Z,5.05
2022-11-04T06:31:54.402Z,4.15
2022-11-04T06:32:56.613Z,5.35
2022-11-04T06:33:59.678Z,5.47
2022-11-04T06:35:01.694Z,2.90
2022-11-04T06:36:07.481Z,4.65
2022-11-04T06:37:10.230Z,3.78
2022-11-04T06:38:13.238Z,3.40
2022-11-04T06:39:17.017Z,4.88
2022-11-04T06:40:20.116Z,4.47
2022-11-04T06:41:22.217Z,5.75
2022-11-04T06:42:26.937Z,3.85
2022-11-04T06:43:28.982Z,5.75
2022-11-04T06:44:39.927Z,4.60
2022-11-04T06:45:44.751Z,6.05
2022-11-04T06:46:48.443Z,5.53
2022-11-04T06:47:50.462Z,5.32
2022-11-04T06:48:53.731Z,4.70
2022-11-04T06:49:55.731Z,5.10
2022-11-04T06:50:59.702Z,5.00
2022-11-04T06:52:03.349Z,6.07
2022-11-04T06:53:05.667Z,4.60
2022-11-04T06:54:09.012Z,4.80
2022-11-04T06:55:12.482Z,4.00
2022-11-04T06:56:15.683Z,4.63
2022-11-04T06:57:17.821Z,6.55
2022-11-04T06:58:20.992Z,5.38
2022-11-04T06:59:24.030Z,8.88
2022-11-04T07:00:27.122Z,4.88
2022-11-04T07:01:32.779Z,8.45
2022-11-04T07:02:36.572Z,5.00
2022-11-04T07:03:38.750Z,5.53
2022-11-04T07:04:41.807Z,5.22
2022-11-04T07:05:43.764Z,4.32
2022-11-04T07:06:46.829Z,5.82
2022-11-04T07:07:48.853Z,5.07
2022-11-04T07:08:53.513Z,6.53
2022-11-04T07:09:55.541Z,5.07
2022-11-04T07:10:59.946Z,8.40
2022-11-04T07:12:02.923Z,6.00
2022-11-04T07:13:05.067Z,6.32
2022-11-04T07:14:08.855Z,5.63
2022-11-04T07:15:12.952Z,7.13
2022-11-04T07:16:15.668Z,7.25
2022-11-04T07:17:18.878Z,6.05
2022-11-04T07:18:21.063Z,5.68
2022-11-04T07:19:24.066Z,5.85
2022-11-04T07:20:26.309Z,6.95
2022-11-04T07:21:29.865Z,6.10
2022-11-04T07:22:32.100Z,6.65
2022-11-04T07:23:35.571Z,4.80
2022-11-04T07:24:37.545Z,7.10
2022-11-04T07:25:40.598Z,6.80
2022-11-04T07:26:45.015Z,6.05
2022-11-04T07:27:47.057Z,6.68
2022-11-04T07:28:50.618Z,6.70
2022-11-04T07:29:52.609Z,6.32
2022-11-04T07:30:57.242Z,7.28
2022-11-04T07:31:59.424Z,6.35
2022-11-04T07:33:02.472Z,7.82
2022-11-04T07:34:05.646Z,7.53
2022-11-04T07:35:08.283Z,7.40
2022-11-04T07:36:13.468Z,5.43
2022-11-04T07:37:15.489Z,5.95
2022-11-04T07:38:18.476Z,5.78
2022-11-04T07:39:21.642Z,7.57
2022-11-04T07:40:24.637Z,6.47
2022-11-04T07:41:27.727Z,7.50
2022-11-04T07:42:31.113Z,8.52
2022-11-04T07:44:43.354Z,5.07
2022-11-04T07:45:46.396Z,5.75
2022-11-04T07:46:48.538Z,7.18
2022-11-04T07:47:51.593Z,7.32
2022-11-04T07:48:58.291Z,5.72
2022-11-04T07:50:00.426Z,6.15
2022-11-04T07:51:04.397Z,6.07
2022-11-04T07:52:06.411Z,7.05
2022-11-04T07:53:10.546Z,7.43
2022-11-04T07:54:13.967Z,6.05
2022-11-04T07:55:18.547Z,7.60
2022-11-04T07:56:21.152Z,8.15
2022-11-04T07:57:24.187Z,5.78
2022-11-04T07:58:29.375Z,6.32
2022-11-04T07:59:32.488Z,7.43
2022-11-04T08:00:35.469Z,7.18
2022-11-04T08:01:38.540Z,5.03
2022-11-04T08:02:40.903Z,6.15
2022-11-04T08:03:44.225Z,6.82
2022-11-04T08:04:46.390Z,6.47
2022-11-04T08:05:56.473Z,7.07
2022-11-04T08:06:59.114Z,6.07
2022-11-04T08:08:02.236Z,6.15
2022-11-04T08:09:05.569Z,8.50
2022-11-04T08:10:10.072Z,6.85
2022-11-04T08:11:17.647Z,6.20
2022-11-04T08:12:20.955Z,5.40
2022-11-04T08:13:24.196Z,6.40
2022-11-04T08:14:28.690Z,6.25
2022-11-04T08:15:30.793Z,7.13
2022-11-04T08:16:34.636Z,6.88
2022-11-04T08:17:37.747Z,6.18
2022-11-04T08:18:40.794Z,6.05
2022-11-04T08:19:43.855Z,6.05
2022-11-04T08:20:50.627Z,5.55
2022-11-04T08:21:52.770Z,8.23
2022-11-04T08:22:55.823Z,6.32
2022-11-04T08:23:57.992Z,7.18
2022-11-04T08:25:01.046Z,6.40
2022-11-04T08:26:07.878Z,6.97
2022-11-04T08:27:11.162Z,7.72
2022-11-04T08:28:17.611Z,6.28
2022-11-04T08:29:20.841Z,6.40
2022-11-04T08:30:24.393Z,6.28
2022-11-04T08:31:29.679Z,6.18
2022-11-04T08:32:32.686Z,8.35
2022-11-04T08:33:35.417Z,6.15
2022-11-04T08:34:38.689Z,5.75
2022-11-04T08:35:42.817Z,6.82
2022-11-04T08:36:47.070Z,7.88
2022-11-04T08:37:50.147Z,5.68
2022-11-04T08:38:53.126Z,6.47
2022-11-04T08:39:56.253Z,6.50
2022-11-04T08:41:00.274Z,6.50
2022-11-04T08:42:03.526Z,6.40
2022-11-04T08:43:05.560Z,5.63
2022-11-04T08:44:09.100Z,7.25
2022-11-04T08:45:11.231Z,5.93
2022-11-04T08:46:16.156Z,8.85
2022-11-04T08:47:18.491Z,6.93
2022-11-04T08:48:21.535Z,8.60
2022-11-04T08:49:24.564Z,6.15
2022-11-04T08:50:27.878Z,8.40
2022-11-04T08:51:32.619Z,8.32
2022-11-04T08:52:35.658Z,8.88
2022-11-04T08:53:37.982Z,7.13
2022-11-04T08:54:41.033Z,7.75
2022-11-04T08:55:43.062Z,8.18
2022-11-04T08:56:46.126Z,6.70
2022-11-04T08:57:48.111Z,10.40
2022-11-04T08:58:51.540Z,6.93
2022-11-04T08:59:54.584Z,8.15
2022-11-04T09:00:56.620Z,6.82
2022-11-04T09:02:01.135Z,8.10
2022-11-04T09:03:04.323Z,6.10
2022-11-04T09:04:08.163Z,7.63
2022-11-04T09:05:11.318Z,5.63
2022-11-04T09:06:15.764Z,7.97
2022-11-04T09:07:18.851Z,8.07
2022-11-04T09:08:20.834Z,5.97
2022-11-04T09:09:23.843Z,5.80
2022-11-04T09:10:26.825Z,6.05
2022-11-04T09:11:30.067Z,5.97
2022-11-04T09:12:32.164Z,5.53
2022-11-04T09:13:39.392Z,5.35
2022-11-04T09:14:43.092Z,5.57
2022-11-04T09:15:45.162Z,5.82
2022-11-04T09:16:48.167Z,7.03
2022-11-04T09:17:51.592Z,5.95
2022-11-04T09:18:54.650Z,5.03
2022-11-04T09:19:57.632Z,7.13
2022-11-04T09:21:00.519Z,4.95
2022-11-04T09:22:03.506Z,5.70
2022-11-04T09:23:05.888Z,7.57
2022-11-04T09:24:09.199Z,6.35
2022-11-04T09:25:11.239Z,10.70
2022-11-04T09:26:16.664Z,5.15
2022-11-04T09:27:18.689Z,6.82
2022-11-04T09:28:21.738Z,5.70
2022-11-04T09:29:24.746Z,9.20
2022-11-04T09:30:27.084Z,4.50
2022-11-04T09:31:31.656Z,5.50
2022-11-04T09:32:33.687Z,4.80
2022-11-04T09:33:38.303Z,5.18
2022-11-04T09:34:41.314Z,4.55
2022-11-04T09:35:43.352Z,5.65
2022-11-04T09:36:47.543Z,5.25
2022-11-04T09:37:50.600Z,5.35
2022-11-04T09:38:53.932Z,5.00
2022-11-04T09:39:56.148Z,4.93
2022-11-04T09:41:00.904Z,4.32
2022-11-04T09:42:31.918Z,3.97
2022-11-04T09:45:20.178Z,5.00
2022-11-04T09:46:15.562Z,4.18
2022-11-04T09:47:21.873Z,3.30
2022-11-04T09:48:28.758Z,4.05
2022-11-04T09:49:38.353Z,3.65
2022-11-04T09:50:46.814Z,5.95
2022-11-04T09:51:55.289Z,2.40
2022-11-04T09:53:04.077Z,4.45
2022-11-04T09:54:14.834Z,3.40
2022-11-04T09:56:28.179Z,3.13
2022-11-04T09:57:33.083Z,3.60
2022-11-04T09:58:39.244Z,2.58
2022-11-04T09:59:42.284Z,4.57
2022-11-04T10:00:49.349Z,3.00
2022-11-04T10:02:06.877Z,2.28
2022-11-04T10:03:27.108Z,2.45
2022-11-04T10:04:41.978Z,3.50
2022-11-04T10:06:00.515Z,5.03
2022-11-04T10:07:18.033Z,3.25
2022-11-04T10:08:45.897Z,2.50
2022-11-04T10:10:00.506Z,2.38
2022-11-04T10:11:07.363Z,2.45
2022-11-04T10:12:23.408Z,2.22
2022-11-04T10:13:33.780Z,2.30
2022-11-04T10:15:12.896Z,2.50
2022-11-04T10:16:26.711Z,2.83
2022-11-04T10:17:49.020Z,3.78
2022-11-04T10:19:12.795Z,2.10
2022-11-04T10:20:29.474Z,3.42
2022-11-04T10:21:42.120Z,2.47
2022-11-04T10:22:55.596Z,1.95
2022-11-04T10:24:08.488Z,3.05
2022-11-04T10:25:16.001Z,4.63
2022-11-04T10:26:27.951Z,2.22
2022-11-04T10:27:34.552Z,2.53
2022-11-04T10:28:42.921Z,2.85
2022-11-04T10:29:49.614Z,2.50
2022-11-04T10:30:58.665Z,2.80
2022-11-04T10:32:04.814Z,1.90
2022-11-04T10:33:13.221Z,2.92
2022-11-04T10:34:28.979Z,2.17
2022-11-04T10:35:37.912Z,2.70
2022-11-04T10:36:41.917Z,1.98
2022-11-04T10:37:43.998Z,2.30
2022-11-04T10:38:49.831Z,3.10
2022-11-04T10:39:57.160Z,2.58
2022-11-04T10:41:06.889Z,3.40
2022-11-04T10:42:12.585Z,6.47
2022-11-04T10:43:18.957Z,1.90
2022-11-04T10:44:25.227Z,3.45
2022-11-04T10:45:35.927Z,2.83
2022-11-04T10:46:51.850Z,1.77
2022-11-04T10:48:00.342Z,4.22
2022-11-04T10:49:11.613Z,6.28
2022-11-04T10:50:31.352Z,8.07
2022-11-04T10:51:36.189Z,3.53
2022-11-04T10:52:40.038Z,5.00
2022-11-04T10:53:44.473Z,3.75
2022-11-04T10:54:48.836Z,3.50
2022-11-04T10:56:00.436Z,2.92
2022-11-04T10:57:02.953Z,6.30
2022-11-04T10:58:17.239Z,4.30
2022-11-04T10:59:25.766Z,3.13
2022-11-04T11:00:40.193Z,3.17
2022-11-04T11:01:50.225Z,5.32
2022-11-04T11:02:52.474Z,4.05
2022-11-04T11:03:56.278Z,5.50
2022-11-04T11:05:14.349Z,3.83
2022-11-04T11:06:25.740Z,3.60
2022-11-04T11:07:37.793Z,5.78
2022-11-04T11:08:41.544Z,4.28
2022-11-04T11:09:54.082Z,3.72
2022-11-04T11:10:56.983Z,3.72
2022-11-04T11:12:02.293Z,2.38
2022-11-04T11:13:07.476Z,5.40
2022-11-04T11:14:18.151Z,3.15
2022-11-04T11:15:30.258Z,2.40
2022-11-04T11:16:33.354Z,2.60
2022-11-04T11:17:42.486Z,2.38
2022-11-04T11:18:45.721Z,5.57
2022-11-04T11:19:52.244Z,5.50
2022-11-04T11:21:11.634Z,2.05
2022-11-04T11:22:32.754Z,5.07
2022-11-04T11:23:39.547Z,2.60
2022-11-04T11:24:42.578Z,4.95
2022-11-04T11:25:50.339Z,5.78
2022-11-04T11:26:55.236Z,3.92
2022-11-04T11:28:06.468Z,2.80
2022-11-04T11:29:12.957Z,3.22
2022-11-04T11:30:23.499Z,3.22
2022-11-04T11:31:26.955Z,2.63
2022-11-04T11:32:33.284Z,4.05
2022-11-04T11:33:39.181Z,2.70
2022-11-04T11:34:45.620Z,1.75
2022-11-04T11:35:52.139Z,3.40
2022-11-04T11:36:56.835Z,3.80
2022-11-04T11:38:04.101Z,2.80
2022-11-04T11:39:17.173Z,2.97
2022-11-04T11:40:34.230Z,3.08
2022-11-04T11:41:53.268Z,3.83
2022-11-04T11:42:56.611Z,3.22
2022-11-04T11:44:03.707Z,2.38
2022-11-04T11:45:17.693Z,3.20
2022-11-04T11:46:23.282Z,4.78
2022-11-04T11:47:38.259Z,4.13
2022-11-04T11:48:43.441Z,4.30
2022-11-04T11:49:46.577Z,2.72
2022-11-04T11:50:56.867Z,3.03
2022-11-04T11:52:27.590Z,3.65
2022-11-04T11:53:34.204Z,3.90
2022-11-04T11:54:39.216Z,2.60
2022-11-04T11:55:47.965Z,2.97
2022-11-04T12:01:26.663Z,5.57
2022-11-04T12:02:35.612Z,6.32
2022-11-04T12:09:57.336Z,5.35
2022-11-04T12:11:08.759Z,3.70
2022-11-04T12:12:23.829Z,6.07
2022-11-04T12:13:30.138Z,7.70
2022-11-04T12:14:49.545Z,5.20
2022-11-04T12:16:10.531Z,6.30
2022-11-04T12:17:27.201Z,8.05
2022-11-04T12:19:07.190Z,5.35
2022-11-04T12:20:34.194Z,3.22
2022-11-04T12:21:42.422Z,7.00
2022-11-04T12:22:51.259Z,7.75
2022-11-04T12:24:01.151Z,5.60
2022-11-04T12:25:15.901Z,6.68
2022-11-04T12:26:29.816Z,6.45
2022-11-04T12:27:40.993Z,4.55
2022-11-04T12:28:58.912Z,4.70
2022-11-04T12:30:06.879Z,4.55
2022-11-04T12:31:23.438Z,3.50
2022-11-04T12:32:37.802Z,4.50
2022-11-04T12:33:47.543Z,6.63
2022-11-04T12:35:10.975Z,2.58
2022-11-04T12:36:39.718Z,3.95
2022-11-04T12:37:55.759Z,6.68
2022-11-04T12:39:21.265Z,2.60
2022-11-04T12:40:29.490Z,5.22
2022-11-04T12:42:06.740Z,5.03
2022-11-04T12:43:21.082Z,3.75
2022-11-04T12:44:32.708Z,8.75
2022-11-04T12:45:48.100Z,5.00
2022-11-04T12:47:02.011Z,5.45
2022-11-04T12:48:10.005Z,5.10
2022-11-04T12:49:39.849Z,4.75
2022-11-04T12:51:02.633Z,4.85
2022-11-04T12:52:20.305Z,7.68
2022-11-04T12:53:50.752Z,6.05
2022-11-04T12:55:07.319Z,3.92
2022-11-04T12:56:13.733Z,3.70
2022-11-04T12:57:26.247Z,5.50
2022-11-04T12:58:44.555Z,6.35
2022-11-04T13:00:06.573Z,6.82
2022-11-04T13:01:15.684Z,5.45
2022-11-04T13:02:25.256Z,7.55
2022-11-04T13:03:34.773Z,6.43
2022-11-04T13:04:42.011Z,4.35
2022-11-04T13:05:50.061Z,4.32
2022-11-04T13:06:55.109Z,4.32
2022-11-04T13:08:13.791Z,3.13
2022-11-04T13:09:22.576Z,5.72
2022-11-04T13:10:34.269Z,5.80
2022-11-04T13:11:44.634Z,5.20
2022-11-04T13:12:49.690Z,4.50
2022-11-04T13:14:02.268Z,10.43
2022-11-04T13:15:14.239Z,6.65
2022-11-04T13:16:17.459Z,5.50
2022-11-04T13:17:25.662Z,5.32
2022-11-04T13:18:35.125Z,3.63
2022-11-04T13:19:44.828Z,4.35
2022-11-04T13:21:00.819Z,5.78
2022-11-04T13:22:09.507Z,3.63
2022-11-04T13:23:20.743Z,3.78
2022-11-04T13:24:30.634Z,10.43
2022-11-04T13:25:39.736Z,4.57
2022-11-04T13:26:44.647Z,4.28
2022-11-04T13:27:48.245Z,5.93
2022-11-04T13:29:07.514Z,5.65
2022-11-04T13:30:22.254Z,6.90
2022-11-04T13:31:35.870Z,6.13
2022-11-04T13:32:48.694Z,5.45
2022-11-04T13:33:58.029Z,6.15
2022-11-04T13:35:09.969Z,9.15
2022-11-04T13:36:29.688Z,6.40
2022-11-04T13:37:38.222Z,4.35
2022-11-04T13:38:45.692Z,4.05
2022-11-04T13:39:53.253Z,4.97
2022-11-04T13:41:15.099Z,6.15
2022-11-04T13:43:19.900Z,4.75
2022-11-04T13:44:27.182Z,9.25
2022-11-04T13:45:30.255Z,6.45
2022-11-04T13:46:35.692Z,7.00
2022-11-04T13:47:54.372Z,7.78
2022-11-04T13:49:02.696Z,6.25
2022-11-04T13:50:07.447Z,5.85
2022-11-04T13:51:12.442Z,9.00
2022-11-04T13:52:16.406Z,5.47
2022-11-04T13:53:19.955Z,12.45
2022-11-04T13:54:31.592Z,6.32
2022-11-04T13:55:36.049Z,5.78
2022-11-04T13:56:41.600Z,6.85
2022-11-04T13:57:55.911Z,9.07
2022-11-04T13:59:02.409Z,3.63
2022-11-04T14:00:24.328Z,6.75
2022-11-04T14:01:30.462Z,8.68
2022-11-04T14:02:42.394Z,6.32
2022-11-04T14:03:53.933Z,3.75
2022-11-04T14:04:57.026Z,6.25
2022-11-04T14:06:05.679Z,8.23
2022-11-04T14:07:10.814Z,4.72
2022-11-04T14:08:14.697Z,6.43
2022-11-04T14:09:52.034Z,7.28
2022-11-04T14:11:08.259Z,7.30
2022-11-04T14:12:38.393Z,6.07
2022-11-04T14:14:18.116Z,4.07
2022-11-04T14:15:54.697Z,3.60
2022-11-04T14:16:57.728Z,4.90
2022-11-04T14:18:09.111Z,6.50
2022-11-04T14:19:57.268Z,5.80
2022-11-04T14:21:19.579Z,7.43
2022-11-04T14:22:23.505Z,5.53
2022-11-04T14:23:28.324Z,6.22
2022-11-04T14:24:30.333Z,8.65
2022-11-04T14:25:40.069Z,5.50
2022-11-04T14:26:44.380Z,7.53
2022-11-04T14:27:50.484Z,3.15
2022-11-04T14:29:03.391Z,3.67
2022-11-04T14:30:28.037Z,4.13
2022-11-04T14:31:38.024Z,7.10
2022-11-04T14:32:41.929Z,6.22
2022-11-04T14:33:54.584Z,5.88
2022-11-04T14:35:03.641Z,5.60
2022-11-04T14:36:31.648Z,7.07
2022-11-04T14:37:35.668Z,3.88
2022-11-04T14:38:38.845Z,4.60
2022-11-04T14:39:43.363Z,4.13
2022-11-04T14:40:49.183Z,7.63
2022-11-04T14:42:01.948Z,7.00
2022-11-04T14:43:05.030Z,6.60
2022-11-04T14:44:15.565Z,5.90
2022-11-04T14:45:24.349Z,6.15
2022-11-04T14:46:32.838Z,7.88
2022-11-04T14:47:37.433Z,5.20
2022-11-04T14:48:46.408Z,5.50
2022-11-04T14:49:51.169Z,5.05
2022-11-04T14:50:55.612Z,4.25
2022-11-04T14:52:00.013Z,8.98
2022-11-04T14:53:07.166Z,5.15
2022-11-04T14:54:21.163Z,4.38
2022-11-04T14:55:25.931Z,4.38
2022-11-04T14:56:29.279Z,6.28
2022-11-04T14:57:38.479Z,8.63
2022-11-04T14:58:53.345Z,5.63
2022-11-04T14:59:56.383Z,4.72
2022-11-04T15:01:06.047Z,7.32
2022-11-04T15:02:16.267Z,8.85
2022-11-04T15:04:54.502Z,6.97
2022-11-04T15:06:00.530Z,5.80
2022-11-04T15:07:05.669Z,4.80
2022-11-04T15:08:32.530Z,4.72
2022-11-04T15:09:41.278Z,7.28
2022-11-04T15:10:49.104Z,9.18
2022-11-04T15:12:11.266Z,3.72
2022-11-04T15:13:14.404Z,7.82
2022-11-04T15:14:20.681Z,4.65
2022-11-04T15:15:37.946Z,7.30
2022-11-04T15:16:44.052Z,6.78